sensor_id;sensor_type;location;lat;lon;timestamp;P1;durP1;ratioP1;P2;durP2;ratioP2
55146;SDS011;41039;49.830;23.988;2022-09-19T00:00:49;6.60;;;2.30;;
55146;SDS011;41039;49.830;23.988;2022-09-19T00:03:16;5.10;;;2.63;;
55146;SDS011;41039;49.830;23.988;2022-09-19T00:05:41;5.90;;;2.28;;
55146;SDS011;41039;49.830;23.988;2022-09-19T00:08:07;5.00;;;3.03;;
55146;SDS011;41039;49.830;23.988;2022-09-19T00:10:42;4.28;;;2.65;;
55146;SDS011;41039;49.830;23.988;2022-09-19T00:13:07;7.90;;;2.40;;
55146;SDS011;41039;49.830;23.988;2022-09-19T00:15:33;4.28;;;1.92;;
55146;SDS011;41039;49.830;23.988;2022-09-19T00:17:59;7.30;;;2.20;;
55146;SDS011;41039;49.830;23.988;2022-09-19T00:20:24;5.63;;;2.78;;
55146;SDS011;41039;49.830;23.988;2022-09-19T00:22:49;4.45;;;2.42;;
55146;SDS011;41039;49.830;23.988;2022-09-19T00:25:33;7.50;;;3.15;;
55146;SDS011;41039;49.830;23.988;2022-09-19T00:27:58;5.97;;;2.80;;
55146;SDS011;41039;49.830;23.988;2022-09-19T00:30:24;5.53;;;2.40;;
55146;SDS011;41039;49.830;23.988;2022-09-19T00:32:49;4.72;;;2.17;;
55146;SDS011;41039;49.830;23.988;2022-09-19T00:35:15;5.85;;;2.90;;
55146;SDS011;41039;49.830;23.988;2022-09-19T00:37:40;3.80;;;2.55;;
55146;SDS011;41039;49.830;23.988;2022-09-19T00:40:06;6.80;;;2.60;;
55146;SDS011;41039;49.830;23.988;2022-09-19T00:42:31;5.55;;;2.40;;
55146;SDS011;41039;49.830;23.988;2022-09-19T00:47:24;4.75;;;2.40;;
55146;SDS011;41039;49.830;23.988;2022-09-19T00:49:53;5.03;;;1.95;;
55146;SDS011;41039;49.830;23.988;2022-09-19T00:52:34;4.95;;;2.47;;
55146;SDS011;41039;49.830;23.988;2022-09-19T00:55:02;5.57;;;2.40;;
55146;SDS011;41039;49.830;23.988;2022-09-19T00:57:35;7.75;;;2.22;;
55146;SDS011;41039;49.830;23.988;2022-09-19T01:00:01;4.03;;;2.08;;
55146;SDS011;41039;49.830;23.988;2022-09-19T01:02:27;4.43;;;1.98;;
55146;SDS011;41039;49.830;23.988;2022-09-19T01:04:54;4.63;;;1.95;;
55146;SDS011;41039;49.830;23.988;2022-09-19T01:07:35;2.92;;;1.60;;
55146;SDS011;41039;49.830;23.988;2022-09-19T01:10:03;5.07;;;1.92;;
55146;SDS011;41039;49.830;23.988;2022-09-19T01:17:46;5.05;;;1.70;;
55146;SDS011;41039;49.830;23.988;2022-09-19T01:30:16;5.43;;;1.80;;
55146;SDS011;41039;49.830;23.988;2022-09-19T01:32:44;4.35;;;1.95;;
55146;SDS011;41039;49.830;23.988;2022-09-19T01:35:15;4.97;;;2.10;;
55146;SDS011;41039;49.830;23.988;2022-09-19T01:37:48;4.53;;;1.50;;
55146;SDS011;41039;49.830;23.988;2022-09-19T01:40:15;3.58;;;1.88;;
55146;SDS011;41039;49.830;23.988;2022-09-19T01:42:52;4.70;;;2.10;;
55146;SDS011;41039;49.830;23.988;2022-09-19T01:45:24;4.35;;;1.80;;
55146;SDS011;41039;49.830;23.988;2022-09-19T01:52:52;4.70;;;2.00;;
55146;SDS011;41039;49.830;23.988;2022-09-19T02:00:21;4.57;;;2.15;;
55146;SDS011;41039;49.830;23.988;2022-09-19T02:08:04;2.85;;;1.27;;
55146;SDS011;41039;49.830;23.988;2022-09-19T02:10:51;4.28;;;1.52;;
55146;SDS011;41039;49.830;23.988;2022-09-19T02:13:19;4.70;;;1.80;;
55146;SDS011;41039;49.830;23.988;2022-09-19T02:15:48;3.45;;;1.30;;
55146;SDS011;41039;49.830;23.988;2022-09-19T02:18:18;5.00;;;1.73;;
55146;SDS011;41039;49.830;23.988;2022-09-19T02:20:47;5.60;;;1.55;;
55146;SDS011;41039;49.830;23.988;2022-09-19T02:23:18;5.07;;;1.33;;
55146;SDS011;41039;49.830;23.988;2022-09-19T02:25:45;3.88;;;1.65;;
55146;SDS011;41039;49.830;23.988;2022-09-19T02:28:14;3.53;;;1.35;;
55146;SDS011;41039;49.830;23.988;2022-09-19T02:30:41;4.10;;;1.40;;
55146;SDS011;41039;49.830;23.988;2022-09-19T02:33:08;2.30;;;1.10;;
55146;SDS011;41039;49.830;23.988;2022-09-19T02:35:36;3.85;;;1.20;;
55146;SDS011;41039;49.830;23.988;2022-09-19T02:38:12;3.15;;;1.38;;
55146;SDS011;41039;49.830;23.988;2022-09-19T02:40:51;5.68;;;1.48;;
55146;SDS011;41039;49.830;23.988;2022-09-19T02:43:59;2.35;;;1.27;;
55146;SDS011;41039;49.830;23.988;2022-09-19T02:46:06;4.72;;;1.13;;
55146;SDS011;41039;49.830;23.988;2022-09-19T02:48:45;3.05;;;1.58;;
55146;SDS011;41039;49.830;23.988;2022-09-19T02:51:14;3.53;;;1.50;;
55146;SDS011;41039;49.830;23.988;2022-09-19T02:53:42;2.83;;;1.30;;
55146;SDS011;41039;49.830;23.988;2022-09-19T02:56:09;3.53;;;1.27;;
55146;SDS011;41039;49.830;23.988;2022-09-19T02:58:43;4.38;;;1.33;;
55146;SDS011;41039;49.830;23.988;2022-09-19T03:01:12;2.95;;;1.67;;
55146;SDS011;41039;49.830;23.988;2022-09-19T03:03:50;3.60;;;1.52;;
55146;SDS011;41039;49.830;23.988;2022-09-19T03:06:37;5.40;;;2.05;;
55146;SDS011;41039;49.830;23.988;2022-09-19T03:09:04;4.10;;;1.67;;
55146;SDS011;41039;49.830;23.988;2022-09-19T03:11:29;3.50;;;1.50;;
55146;SDS011;41039;49.830;23.988;2022-09-19T03:13:56;6.05;;;1.70;;
55146;SDS011;41039;49.830;23.988;2022-09-19T03:16:33;2.08;;;1.10;;
55146;SDS011;41039;49.830;23.988;2022-09-19T03:19:01;3.60;;;1.40;;
55146;SDS011;41039;49.830;23.988;2022-09-19T03:21:26;4.93;;;1.20;;
55146;SDS011;41039;49.830;23.988;2022-09-19T03:23:52;2.45;;;1.13;;
55146;SDS011;41039;49.830;23.988;2022-09-19T03:26:22;2.08;;;0.93;;
55146;SDS011;41039;49.830;23.988;2022-09-19T03:28:50;5.35;;;1.20;;
55146;SDS011;41039;49.830;23.988;2022-09-19T03:31:15;4.88;;;2.08;;
55146;SDS011;41039;49.830;23.988;2022-09-19T03:33:41;4.63;;;1.60;;
55146;SDS011;41039;49.830;23.988;2022-09-19T03:36:06;3.20;;;1.42;;
55146;SDS011;41039;49.830;23.988;2022-09-19T03:38:36;4.70;;;1.95;;
55146;SDS011;41039;49.830;23.988;2022-09-19T03:41:02;5.07;;;2.25;;
55146;SDS011;41039;49.830;23.988;2022-09-19T03:43:27;10.90;;;2.50;;
55146;SDS011;41039;49.830;23.988;2022-09-19T03:45:54;6.35;;;2.40;;
55146;SDS011;41039;49.830;23.988;2022-09-19T03:48:20;7.25;;;2.97;;
55146;SDS011;41039;49.830;23.988;2022-09-19T03:50:46;5.25;;;3.13;;
55146;SDS011;41039;49.830;23.988;2022-09-19T03:53:11;6.10;;;2.92;;
55146;SDS011;41039;49.830;23.988;2022-09-19T03:55:36;5.55;;;3.30;;
55146;SDS011;41039;49.830;23.988;2022-09-19T03:58:08;6.00;;;2.72;;
55146;SDS011;41039;49.830;23.988;2022-09-19T04:00:36;6.25;;;2.95;;
55146;SDS011;41039;49.830;23.988;2022-09-19T04:03:01;5.22;;;2.30;;
55146;SDS011;41039;49.830;23.988;2022-09-19T04:05:27;4.15;;;1.65;;
55146;SDS011;41039;49.830;23.988;2022-09-19T04:07:52;5.78;;;2.05;;
55146;SDS011;41039;49.830;23.988;2022-09-19T04:10:17;3.60;;;1.65;;
55146;SDS011;41039;49.830;23.988;2022-09-19T04:12:42;4.43;;;1.63;;
55146;SDS011;41039;49.830;23.988;2022-09-19T04:15:08;3.50;;;1.50;;
55146;SDS011;41039;49.830;23.988;2022-09-19T04:17:33;7.32;;;1.98;;
55146;SDS011;41039;49.830;23.988;2022-09-19T04:19:58;4.32;;;1.40;;
55146;SDS011;41039;49.830;23.988;2022-09-19T04:22:24;3.00;;;1.27;;
55146;SDS011;41039;49.830;23.988;2022-09-19T04:24:49;5.47;;;1.77;;
55146;SDS011;41039;49.830;23.988;2022-09-19T04:27:16;2.22;;;1.20;;
55146;SDS011;41039;49.830;23.988;2022-09-19T04:29:41;4.05;;;1.90;;
55146;SDS011;41039;49.830;23.988;2022-09-19T04:32:07;4.40;;;1.50;;
55146;SDS011;41039;49.830;23.988;2022-09-19T04:34:33;3.80;;;1.83;;
55146;SDS011;41039;49.830;23.988;2022-09-19T04:36:58;4.45;;;1.60;;
55146;SDS011;41039;49.830;23.988;2022-09-19T04:39:27;3.28;;;1.40;;
55146;SDS011;41039;49.830;23.988;2022-09-19T04:41:52;2.55;;;1.55;;
55146;SDS011;41039;49.830;23.988;2022-09-19T04:44:18;3.10;;;1.70;;
55146;SDS011;41039;49.830;23.988;2022-09-19T04:46:45;3.47;;;1.92;;
55146;SDS011;41039;49.830;23.988;2022-09-19T04:49:13;5.97;;;2.42;;
55146;SDS011;41039;49.830;23.988;2022-09-19T04:51:39;4.78;;;1.60;;
55146;SDS011;41039;49.830;23.988;2022-09-19T04:54:04;3.50;;;1.50;;
55146;SDS011;41039;49.830;23.988;2022-09-19T04:56:31;5.88;;;1.63;;
55146;SDS011;41039;49.830;23.988;2022-09-19T04:58:56;4.10;;;1.98;;
55146;SDS011;41039;49.830;23.988;2022-09-19T05:01:24;3.70;;;1.58;;
55146;SDS011;41039;49.830;23.988;2022-09-19T05:03:49;4.97;;;2.40;;
55146;SDS011;41039;49.830;23.988;2022-09-19T05:06:15;3.38;;;1.30;;
55146;SDS011;41039;49.830;23.988;2022-09-19T05:08:40;3.17;;;2.05;;
55146;SDS011;41039;49.830;23.988;2022-09-19T05:11:06;3.70;;;1.52;;
55146;SDS011;41039;49.830;23.988;2022-09-19T05:13:34;6.38;;;2.20;;
55146;SDS011;41039;49.830;23.988;2022-09-19T05:16:00;4.95;;;1.95;;
55146;SDS011;41039;49.830;23.988;2022-09-19T05:18:26;5.15;;;3.13;;
55146;SDS011;41039;49.830;23.988;2022-09-19T05:20:52;4.00;;;2.00;;
55146;SDS011;41039;49.830;23.988;2022-09-19T05:23:18;4.63;;;1.90;;
55146;SDS011;41039;49.830;23.988;2022-09-19T05:25:43;5.57;;;1.90;;
55146;SDS011;41039;49.830;23.988;2022-09-19T05:28:09;3.30;;;1.80;;
55146;SDS011;41039;49.830;23.988;2022-09-19T05:30:38;4.88;;;1.90;;
55146;SDS011;41039;49.830;23.988;2022-09-19T05:33:04;4.57;;;2.00;;
55146;SDS011;41039;49.830;23.988;2022-09-19T05:35:31;6.20;;;2.05;;
55146;SDS011;41039;49.830;23.988;2022-09-19T05:37:56;3.35;;;1.98;;
55146;SDS011;41039;49.830;23.988;2022-09-19T05:40:22;5.03;;;3.10;;
55146;SDS011;41039;49.830;23.988;2022-09-19T05:42:47;4.28;;;2.35;;
55146;SDS011;41039;49.830;23.988;2022-09-19T05:45:13;5.43;;;2.50;;
55146;SDS011;41039;49.830;23.988;2022-09-19T05:47:39;4.50;;;2.10;;
55146;SDS011;41039;49.830;23.988;2022-09-19T05:50:06;4.28;;;2.03;;
55146;SDS011;41039;49.830;23.988;2022-09-19T05:52:33;4.07;;;1.58;;
55146;SDS011;41039;49.830;23.988;2022-09-19T05:55:17;4.43;;;1.70;;
55146;SDS011;41039;49.830;23.988;2022-09-19T05:57:42;3.25;;;1.70;;
55146;SDS011;41039;49.830;23.988;2022-09-19T06:00:07;4.40;;;1.50;;
55146;SDS011;41039;49.830;23.988;2022-09-19T06:02:33;3.60;;;1.70;;
55146;SDS011;41039;49.830;23.988;2022-09-19T06:04:58;5.43;;;1.30;;
55146;SDS011;41039;49.830;23.988;2022-09-19T06:07:23;5.57;;;1.77;;
55146;SDS011;41039;49.830;23.988;2022-09-19T06:09:49;2.22;;;1.17;;
55146;SDS011;41039;49.830;23.988;2022-09-19T06:12:17;4.43;;;2.10;;
55146;SDS011;41039;49.830;23.988;2022-09-19T06:14:43;4.93;;;1.35;;
55146;SDS011;41039;49.830;23.988;2022-09-19T06:17:08;2.92;;;1.60;;
55146;SDS011;41039;49.830;23.988;2022-09-19T06:19:33;4.10;;;1.38;;
55146;SDS011;41039;49.830;23.988;2022-09-19T06:21:59;3.13;;;1.20;;
55146;SDS011;41039;49.830;23.988;2022-09-19T06:24:25;2.22;;;0.90;;
55146;SDS011;41039;49.830;23.988;2022-09-19T06:26:53;3.88;;;1.25;;
55146;SDS011;41039;49.830;23.988;2022-09-19T06:29:19;1.90;;;0.90;;
55146;SDS011;41039;49.830;23.988;2022-09-19T06:31:44;3.95;;;1.23;;
55146;SDS011;41039;49.830;23.988;2022-09-19T06:34:09;4.43;;;1.73;;
55146;SDS011;41039;49.830;23.988;2022-09-19T06:36:35;4.28;;;1.20;;
55146;SDS011;41039;49.830;23.988;2022-09-19T06:39:00;4.32;;;1.20;;
55146;SDS011;41039;49.830;23.988;2022-09-19T06:41:25;1.65;;;0.90;;
55146;SDS011;41039;49.830;23.988;2022-09-19T06:43:51;3.03;;;0.90;;
55146;SDS011;41039;49.830;23.988;2022-09-19T06:46:16;1.90;;;0.70;;
55146;SDS011;41039;49.830;23.988;2022-09-19T06:48:42;2.70;;;0.82;;
55146;SDS011;41039;49.830;23.988;2022-09-19T06:51:08;4.57;;;1.10;;
55146;SDS011;41039;49.830;23.988;2022-09-19T06:53:33;3.58;;;0.90;;
55146;SDS011;41039;49.830;23.988;2022-09-19T06:55:58;0.85;;;0.50;;
55146;SDS011;41039;49.830;23.988;2022-09-19T06:58:24;4.40;;;1.48;;
55146;SDS011;41039;49.830;23.988;2022-09-19T07:00:51;1.95;;;0.90;;
55146;SDS011;41039;49.830;23.988;2022-09-19T07:03:17;2.67;;;0.63;;
55146;SDS011;41039;49.830;23.988;2022-09-19T07:05:43;0.95;;;0.55;;
55146;SDS011;41039;49.830;23.988;2022-09-19T07:08:09;3.28;;;1.00;;
55146;SDS011;41039;49.830;23.988;2022-09-19T07:10:35;1.55;;;0.65;;
55146;SDS011;41039;49.830;23.988;2022-09-19T07:13:02;2.03;;;0.77;;
55146;SDS011;41039;49.830;23.988;2022-09-19T07:15:31;2.92;;;1.02;;
55146;SDS011;41039;49.830;23.988;2022-09-19T07:17:56;3.35;;;1.02;;
55146;SDS011;41039;49.830;23.988;2022-09-19T07:20:23;2.05;;;0.77;;
55146;SDS011;41039;49.830;23.988;2022-09-19T07:22:58;3.58;;;0.95;;
55146;SDS011;41039;49.830;23.988;2022-09-19T07:25:24;4.22;;;1.25;;
55146;SDS011;41039;49.830;23.988;2022-09-19T07:27:53;2.80;;;1.10;;
55146;SDS011;41039;49.830;23.988;2022-09-19T07:30:18;2.05;;;0.90;;
55146;SDS011;41039;49.830;23.988;2022-09-19T07:32:43;1.70;;;0.80;;
55146;SDS011;41039;49.830;23.988;2022-09-19T07:35:09;2.38;;;0.80;;
55146;SDS011;41039;49.830;23.988;2022-09-19T07:37:34;2.72;;;0.80;;
55146;SDS011;41039;49.830;23.988;2022-09-19T07:39:59;2.22;;;0.73;;
55146;SDS011;41039;49.830;23.988;2022-09-19T07:42:24;2.38;;;0.88;;
55146;SDS011;41039;49.830;23.988;2022-09-19T07:44:49;1.90;;;0.93;;
55146;SDS011;41039;49.830;23.988;2022-09-19T07:47:15;1.52;;;0.75;;
55146;SDS011;41039;49.830;23.988;2022-09-19T07:49:52;4.25;;;1.23;;
55146;SDS011;41039;49.830;23.988;2022-09-19T07:52:19;3.10;;;1.15;;
55146;SDS011;41039;49.830;23.988;2022-09-19T07:54:44;7.55;;;2.00;;
55146;SDS011;41039;49.830;23.988;2022-09-19T07:57:09;5.50;;;2.05;;
55146;SDS011;41039;49.830;23.988;2022-09-19T07:59:35;3.33;;;1.30;;
55146;SDS011;41039;49.830;23.988;2022-09-19T08:02:00;2.33;;;1.20;;
55146;SDS011;41039;49.830;23.988;2022-09-19T08:04:25;3.35;;;0.90;;
55146;SDS011;41039;49.830;23.988;2022-09-19T08:06:52;2.75;;;1.25;;
55146;SDS011;41039;49.830;23.988;2022-09-19T08:09:17;3.15;;;1.50;;
55146;SDS011;41039;49.830;23.988;2022-09-19T08:11:43;2.38;;;1.20;;
55146;SDS011;41039;49.830;23.988;2022-09-19T08:14:09;3.63;;;1.60;;
55146;SDS011;41039;49.830;23.988;2022-09-19T08:16:34;3.80;;;0.98;;
55146;SDS011;41039;49.830;23.988;2022-09-19T08:18:59;2.55;;;1.08;;
55146;SDS011;41039;49.830;23.988;2022-09-19T08:21:25;3.08;;;1.20;;
55146;SDS011;41039;49.830;23.988;2022-09-19T08:23:50;1.40;;;0.85;;
55146;SDS011;41039;49.830;23.988;2022-09-19T08:26:15;2.78;;;1.10;;
55146;SDS011;41039;49.830;23.988;2022-09-19T08:28:42;2.33;;;0.70;;
55146;SDS011;41039;49.830;23.988;2022-09-19T08:31:07;2.40;;;0.60;;
55146;SDS011;41039;49.830;23.988;2022-09-19T08:33:33;1.38;;;0.70;;
55146;SDS011;41039;49.830;23.988;2022-09-19T08:35:59;0.77;;;0.50;;
55146;SDS011;41039;49.830;23.988;2022-09-19T08:38:24;1.67;;;0.75;;
55146;SDS011;41039;49.830;23.988;2022-09-19T08:40:54;2.53;;;0.82;;
55146;SDS011;41039;49.830;23.988;2022-09-19T08:46:29;1.27;;;0.82;;
55146;SDS011;41039;49.830;23.988;2022-09-19T08:54:12;3.03;;;0.88;;
55146;SDS011;41039;49.830;23.988;2022-09-19T08:56:40;2.75;;;1.00;;
55146;SDS011;41039;49.830;23.988;2022-09-19T08:59:13;2.30;;;0.70;;
55146;SDS011;41039;49.830;23.988;2022-09-19T09:01:40;3.08;;;1.00;;
55146;SDS011;41039;49.830;23.988;2022-09-19T09:14:22;3.28;;;0.70;;
55146;SDS011;41039;49.830;23.988;2022-09-19T09:19:53;1.30;;;0.70;;
55146;SDS011;41039;49.830;23.988;2022-09-19T09:24:53;2.78;;;1.08;;
55146;SDS011;41039;49.830;23.988;2022-09-19T09:27:24;2.28;;;0.90;;
55146;SDS011;41039;49.830;23.988;2022-09-19T09:29:54;1.20;;;0.65;;
55146;SDS011;41039;49.830;23.988;2022-09-19T09:32:33;3.70;;;1.77;;
55146;SDS011;41039;49.830;23.988;2022-09-19T09:37:26;3.33;;;0.85;;
55146;SDS011;41039;49.830;23.988;2022-09-19T09:42:27;2.38;;;1.35;;
55146;SDS011;41039;49.830;23.988;2022-09-19T09:49:50;4.80;;;1.88;;
55146;SDS011;41039;49.830;23.988;2022-09-19T09:52:22;8.88;;;6.57;;
55146;SDS011;41039;49.830;23.988;2022-09-19T10:00:10;4.37;;;1.40;;
55146;SDS011;41039;49.830;23.988;2022-09-19T10:03:06;1.92;;;1.25;;
55146;SDS011;41039;49.830;23.988;2022-09-19T10:05:58;2.53;;;1.60;;
55146;SDS011;41039;49.830;23.988;2022-09-19T10:13:41;3.38;;;1.40;;
55146;SDS011;41039;49.830;23.988;2022-09-19T10:16:11;2.22;;;0.93;;
55146;SDS011;41039;49.830;23.988;2022-09-19T10:18:46;1.70;;;1.10;;
55146;SDS011;41039;49.830;23.988;2022-09-19T10:21:13;2.83;;;1.60;;
55146;SDS011;41039;49.830;23.988;2022-09-19T10:23:39;5.38;;;1.75;;
55146;SDS011;41039;49.830;23.988;2022-09-19T10:26:07;2.08;;;1.40;;
55146;SDS011;41039;49.830;23.988;2022-09-19T10:28:40;5.70;;;1.60;;
55146;SDS011;41039;49.830;23.988;2022-09-19T10:31:19;3.55;;;1.30;;
55146;SDS011;41039;49.830;23.988;2022-09-19T10:33:48;3.20;;;1.63;;
55146;SDS011;41039;49.830;23.988;2022-09-19T10:36:18;6.82;;;2.65;;
55146;SDS011;41039;49.830;23.988;2022-09-19T10:39:26;4.40;;;1.50;;
55146;SDS011;41039;49.830;23.988;2022-09-19T10:41:34;2.97;;;1.20;;
55146;SDS011;41039;49.830;23.988;2022-09-19T10:44:01;6.35;;;1.40;;
55146;SDS011;41039;49.830;23.988;2022-09-19T10:46:27;4.35;;;1.50;;
55146;SDS011;41039;49.830;23.988;2022-09-19T10:49:06;4.82;;;1.35;;
55146;SDS011;41039;49.830;23.988;2022-09-19T10:51:41;5.78;;;2.20;;
55146;SDS011;41039;49.830;23.988;2022-09-19T10:54:12;4.13;;;1.57;;
55146;SDS011;41039;49.830;23.988;2022-09-19T10:56:43;8.60;;;2.22;;
55146;SDS011;41039;49.830;23.988;2022-09-19T11:01:43;5.13;;;1.70;;
55146;SDS011;41039;49.830;23.988;2022-09-19T11:04:28;3.58;;;1.70;;
55146;SDS011;41039;49.830;23.988;2022-09-19T11:06:57;2.60;;;1.60;;
55146;SDS011;41039;49.830;23.988;2022-09-19T11:09:25;3.03;;;1.50;;
55146;SDS011;41039;49.830;23.988;2022-09-19T11:11:50;4.63;;;1.50;;
55146;SDS011;41039;49.830;23.988;2022-09-19T11:14:17;2.35;;;1.48;;
55146;SDS011;41039;49.830;23.988;2022-09-19T11:19:20;3.25;;;1.10;;
55146;SDS011;41039;49.830;23.988;2022-09-19T11:50:47;4.57;;;1.25;;
55146;SDS011;41039;49.830;23.988;2022-09-19T12:01:19;7.63;;;1.67;;
55146;SDS011;41039;49.830;23.988;2022-09-19T12:09:09;4.07;;;1.20;;
55146;SDS011;41039;49.830;23.988;2022-09-19T12:11:40;3.50;;;1.70;;
55146;SDS011;41039;49.830;23.988;2022-09-19T12:14:09;2.85;;;1.77;;
55146;SDS011;41039;49.830;23.988;2022-09-19T12:19:02;3.17;;;1.70;;
55146;SDS011;41039;49.830;23.988;2022-09-19T12:21:32;2.83;;;1.55;;
55146;SDS011;41039;49.830;23.988;2022-09-19T12:24:02;2.85;;;1.60;;
55146;SDS011;41039;49.830;23.988;2022-09-19T12:31:44;4.05;;;1.63;;
55146;SDS011;41039;49.830;23.988;2022-09-19T12:34:15;4.20;;;1.75;;
55146;SDS011;41039;49.830;23.988;2022-09-19T12:39:34;5.03;;;2.25;;
55146;SDS011;41039;49.830;23.988;2022-09-19T12:42:01;6.88;;;2.30;;
55146;SDS011;41039;49.830;23.988;2022-09-19T12:52:17;3.10;;;2.38;;
55146;SDS011;41039;49.830;23.988;2022-09-19T12:54:51;2.78;;;1.63;;
55146;SDS011;41039;49.830;23.988;2022-09-19T13:00:04;3.08;;;1.92;;
55146;SDS011;41039;49.830;23.988;2022-09-19T13:02:34;3.50;;;2.28;;
55146;SDS011;41039;49.830;23.988;2022-09-19T13:05:05;3.78;;;2.00;;
55146;SDS011;41039;49.830;23.988;2022-09-19T13:07:40;4.78;;;2.20;;
55146;SDS011;41039;49.830;23.988;2022-09-19T13:10:27;4.32;;;2.47;;
55146;SDS011;41039;49.830;23.988;2022-09-19T13:17:59;4.47;;;2.40;;
55146;SDS011;41039;49.830;23.988;2022-09-19T13:20:43;4.10;;;2.25;;
55146;SDS011;41039;49.830;23.988;2022-09-19T13:23:28;4.65;;;2.30;;
55146;SDS011;41039;49.830;23.988;2022-09-19T13:28:51;3.30;;;2.00;;
55146;SDS011;41039;49.830;23.988;2022-09-19T13:31:17;3.88;;;2.20;;
55146;SDS011;41039;49.830;23.988;2022-09-19T13:33:50;4.18;;;2.63;;
55146;SDS011;41039;49.830;23.988;2022-09-19T13:38:56;6.10;;;3.58;;
55146;SDS011;41039;49.830;23.988;2022-09-19T13:41:27;7.32;;;4.20;;
55146;SDS011;41039;49.830;23.988;2022-09-19T13:52:01;5.05;;;2.90;;
55146;SDS011;41039;49.830;23.988;2022-09-19T13:55:17;5.63;;;2.92;;
55146;SDS011;41039;49.830;23.988;2022-09-19T13:57:22;4.85;;;2.85;;
55146;SDS011;41039;49.830;23.988;2022-09-19T14:04:42;3.45;;;2.45;;
55146;SDS011;41039;49.830;23.988;2022-09-19T14:07:30;4.13;;;2.58;;
55146;SDS011;41039;49.830;23.988;2022-09-19T14:10:00;3.90;;;2.22;;
55146;SDS011;41039;49.830;23.988;2022-09-19T14:20:54;5.20;;;3.55;;
55146;SDS011;41039;49.830;23.988;2022-09-19T14:23:20;5.93;;;3.40;;
55146;SDS011;41039;49.830;23.988;2022-09-19T14:35:47;3.47;;;1.83;;
55146;SDS011;41039;49.830;23.988;2022-09-19T14:46:25;3.05;;;1.55;;
55146;SDS011;41039;49.830;23.988;2022-09-19T14:51:36;4.22;;;1.85;;
55146;SDS011;41039;49.830;23.988;2022-09-19T14:54:24;3.28;;;2.05;;
55146;SDS011;41039;49.830;23.988;2022-09-19T14:56:59;3.35;;;1.80;;
55146;SDS011;41039;49.830;23.988;2022-09-19T14:59:28;2.15;;;1.50;;
55146;SDS011;41039;49.830;23.988;2022-09-19T15:01:55;4.75;;;3.42;;
55146;SDS011;41039;49.830;23.988;2022-09-19T15:04:21;3.67;;;2.03;;
55146;SDS011;41039;49.830;23.988;2022-09-19T15:06:52;4.07;;;2.20;;
55146;SDS011;41039;49.830;23.988;2022-09-19T15:09:30;3.35;;;2.03;;
55146;SDS011;41039;49.830;23.988;2022-09-19T15:11:56;2.92;;;1.85;;
55146;SDS011;41039;49.830;23.988;2022-09-19T15:14:26;4.05;;;1.73;;
55146;SDS011;41039;49.830;23.988;2022-09-19T15:17:11;3.72;;;2.28;;
55146;SDS011;41039;49.830;23.988;2022-09-19T15:19:40;3.55;;;1.98;;
55146;SDS011;41039;49.830;23.988;2022-09-19T15:22:31;2.38;;;1.65;;
55146;SDS011;41039;49.830;23.988;2022-09-19T15:24:55;2.90;;;1.88;;
55146;SDS011;41039;49.830;23.988;2022-09-19T15:27:25;3.58;;;2.28;;
55146;SDS011;41039;49.830;23.988;2022-09-19T15:29:51;3.95;;;2.33;;
55146;SDS011;41039;49.830;23.988;2022-09-19T15:32:26;3.85;;;2.55;;
55146;SDS011;41039;49.830;23.988;2022-09-19T15:35:05;5.20;;;2.85;;
55146;SDS011;41039;49.830;23.988;2022-09-19T15:37:32;4.70;;;2.90;;
55146;SDS011;41039;49.830;23.988;2022-09-19T15:39:59;5.13;;;2.72;;
55146;SDS011;41039;49.830;23.988;2022-09-19T15:42:27;5.25;;;2.63;;
55146;SDS011;41039;49.830;23.988;2022-09-19T15:44:53;5.70;;;3.13;;
55146;SDS011;41039;49.830;23.988;2022-09-19T15:47:19;3.65;;;2.30;;
55146;SDS011;41039;49.830;23.988;2022-09-19T15:49:47;5.30;;;3.70;;
55146;SDS011;41039;49.830;23.988;2022-09-19T15:52:25;4.35;;;2.40;;
55146;SDS011;41039;49.830;23.988;2022-09-19T15:54:51;3.90;;;2.25;;
55146;SDS011;41039;49.830;23.988;2022-09-19T15:57:24;4.13;;;2.70;;
55146;SDS011;41039;49.830;23.988;2022-09-19T15:59:57;5.05;;;2.65;;
55146;SDS011;41039;49.830;23.988;2022-09-19T16:02:24;6.07;;;2.50;;
55146;SDS011;41039;49.830;23.988;2022-09-19T16:05:01;3.22;;;1.95;;
55146;SDS011;41039;49.830;23.988;2022-09-19T16:07:30;4.22;;;2.90;;
55146;SDS011;41039;49.830;23.988;2022-09-19T16:12:41;3.33;;;2.10;;
55146;SDS011;41039;49.830;23.988;2022-09-19T16:23:10;4.13;;;2.53;;
55146;SDS011;41039;49.830;23.988;2022-09-19T16:28:11;4.20;;;2.45;;
55146;SDS011;41039;49.830;23.988;2022-09-19T16:33:18;4.03;;;3.00;;
55146;SDS011;41039;49.830;23.988;2022-09-19T16:35:43;7.97;;;5.50;;
55146;SDS011;41039;49.830;23.988;2022-09-19T16:38:09;5.32;;;3.67;;
55146;SDS011;41039;49.830;23.988;2022-09-19T16:40:34;6.25;;;3.03;;
55146;SDS011;41039;49.830;23.988;2022-09-19T16:43:00;4.18;;;2.85;;
55146;SDS011;41039;49.830;23.988;2022-09-19T16:45:45;5.10;;;2.67;;
55146;SDS011;41039;49.830;23.988;2022-09-19T16:48:12;4.88;;;2.97;;
55146;SDS011;41039;49.830;23.988;2022-09-19T16:50:39;4.65;;;2.92;;
55146;SDS011;41039;49.830;23.988;2022-09-19T16:53:05;5.80;;;3.05;;
55146;SDS011;41039;49.830;23.988;2022-09-19T16:55:37;5.15;;;3.67;;
55146;SDS011;41039;49.830;23.988;2022-09-19T16:58:13;5.82;;;3.40;;
55146;SDS011;41039;49.830;23.988;2022-09-19T17:00:38;7.03;;;3.80;;
55146;SDS011;41039;49.830;23.988;2022-09-19T17:03:05;6.13;;;4.18;;
55146;SDS011;41039;49.830;23.988;2022-09-19T17:05:31;7.47;;;4.80;;
55146;SDS011;41039;49.830;23.988;2022-09-19T17:07:58;5.80;;;3.20;;
55146;SDS011;41039;49.830;23.988;2022-09-19T17:10:24;4.03;;;3.22;;
55146;SDS011;41039;49.830;23.988;2022-09-19T17:12:49;4.72;;;2.97;;
55146;SDS011;41039;49.830;23.988;2022-09-19T17:17:56;4.35;;;2.80;;
55146;SDS011;41039;49.830;23.988;2022-09-19T17:20:21;6.40;;;3.95;;
55146;SDS011;41039;49.830;23.988;2022-09-19T17:22:46;6.72;;;3.63;;
55146;SDS011;41039;49.830;23.988;2022-09-19T17:25:20;8.27;;;4.55;;
55146;SDS011;41039;49.830;23.988;2022-09-19T17:27:46;7.80;;;4.13;;
55146;SDS011;41039;49.830;23.988;2022-09-19T17:30:11;7.50;;;3.95;;
55146;SDS011;41039;49.830;23.988;2022-09-19T17:32:37;6.03;;;3.42;;
55146;SDS011;41039;49.830;23.988;2022-09-19T17:35:02;6.82;;;3.17;;
55146;SDS011;41039;49.830;23.988;2022-09-19T17:37:27;5.65;;;3.50;;
55146;SDS011;41039;49.830;23.988;2022-09-19T17:39:54;5.72;;;3.20;;
55146;SDS011;41039;49.830;23.988;2022-09-19T17:42:19;8.57;;;4.45;;
55146;SDS011;41039;49.830;23.988;2022-09-19T17:44:47;6.18;;;3.53;;
55146;SDS011;41039;49.830;23.988;2022-09-19T17:47:12;5.78;;;3.03;;
55146;SDS011;41039;49.830;23.988;2022-09-19T17:49:37;7.10;;;3.10;;
55146;SDS011;41039;49.830;23.988;2022-09-19T17:52:02;6.72;;;2.92;;
55146;SDS011;41039;49.830;23.988;2022-09-19T17:54:28;4.15;;;2.65;;
55146;SDS011;41039;49.830;23.988;2022-09-19T17:56:53;5.47;;;3.10;;
55146;SDS011;41039;49.830;23.988;2022-09-19T17:59:19;5.80;;;3.35;;
55146;SDS011;41039;49.830;23.988;2022-09-19T18:01:45;4.50;;;2.63;;
55146;SDS011;41039;49.830;23.988;2022-09-19T18:04:29;5.60;;;2.90;;
55146;SDS011;41039;49.830;23.988;2022-09-19T18:06:54;4.68;;;2.53;;
55146;SDS011;41039;49.830;23.988;2022-09-19T18:09:20;6.20;;;3.00;;
55146;SDS011;41039;49.830;23.988;2022-09-19T18:11:45;6.15;;;3.25;;
55146;SDS011;41039;49.830;23.988;2022-09-19T18:14:10;6.38;;;2.92;;
55146;SDS011;41039;49.830;23.988;2022-09-19T18:16:37;5.68;;;2.85;;
55146;SDS011;41039;49.830;23.988;2022-09-19T18:19:04;4.38;;;2.85;;